Airfield :
LOGIN :

Register | Disclaimer

   EN    FR    IT 

 










Legend :    VFR   Marginal VFR   IFR   Intensive IFR   Very Intensive IFR
Visi :
Ceiling :
>= 8 km
>= 3000ft
5 to 8 km
1000 to 3000 ft
1500m to 5 km
500 to 1000 ft
800 to 1500m
200 to 500 ft
< 800m
< 200 ft
Symbols :   Thunderstorms  Fog  Heavy snow  Heavy precipitations  Wind > 20 kt
SIGMETs :     Misc.  Thunderstorms  Icing  Turbulence  Mountain Waves  Volcanic Ashes






- Airport Elevation : 157 ft
- IATA code : LIL


LFQQ - Lille Lesquin

CURRENT METAR :
  • 050800Z AUTO VRB03KT 9999 FEW012 19/15 Q1010 NOSIG

EXPIRED METARs :
  • 050730Z AUTO 22003KT 180V250 CAVOK 18/15 Q1010 NOSIG
  • 050700Z AUTO VRB02KT CAVOK 17/15 Q1010 NOSIG
  • 050630Z AUTO VRB02KT CAVOK 17/15 Q1010 NOSIG
  • 050600Z AUTO 00000KT 9000 NSC 16/15 Q1010 BECMG 21015G25KT
  • 050530Z AUTO 00000KT 6000 FEW040 BKN094 15/14 Q1010 TEMPO 3000 BR
  • 050500Z AUTO 00000KT 6000 1200 R26/1100U R08/P5000 NSC 14/13 Q1010 TEMPO 3000 BR

TAF AMD TAF LFQQ
Valid from the 05 at 06:00 until the 06 at 12:00 UTC


050603Z 0506/0612 VRB02KT 4000 BR SCT040
BECMG 0506/0507 9999 NSW
BECMG 0510/0512 19010KT
TEMPO 0517/0520 19015G25KT 3000 RA BKN030TCU
TEMPO 0521/0612 3000 RA BKN010 BKN030TCU
BECMG 0607/0609 21015G25KT
ATIS : +33 3 20 16 19 54



MET'MAP, your aeronautical weather chart ! - Copyright ORBIFLY December 2007 - Disclaimer

ORBIFLY MET'MAP TEAM :

Programming & Development : Alexandra Zaïnal
Concept & original design : Baudouin d'Aumeries
Assistance for programming : Marc-Olivier Méhu
Technical & hardware support : Manuel Goepfert

Contact : metmap@orbifly.com




SOURCES & CREDITS :

   NOAA